createdAt,value
2022-08-14T00:00:18.794Z,6.25
2022-08-14T00:02:46.329Z,9.27
2022-08-14T00:05:16.874Z,6.80
2022-08-14T00:07:43.653Z,8.18
2022-08-14T00:10:52.165Z,12.88
2022-08-14T00:13:06.881Z,6.47
2022-08-14T00:15:37.686Z,9.00
2022-08-14T00:18:14.514Z,8.65
2022-08-14T00:20:57.559Z,8.13
2022-08-14T00:23:23.902Z,8.13
2022-08-14T00:25:58.756Z,7.90
2022-08-14T00:28:35.377Z,7.43
2022-08-14T00:31:02.239Z,7.90
2022-08-14T00:33:39.271Z,7.88
2022-08-14T00:36:37.054Z,9.48
2022-08-14T00:39:01.763Z,8.13
2022-08-14T00:41:31.919Z,8.45
2022-08-14T00:43:59.838Z,10.27
2022-08-14T00:46:32.546Z,8.95
2022-08-14T00:48:59.945Z,7.15
2022-08-14T00:51:37.830Z,7.45
2022-08-14T00:54:05.393Z,8.18
2022-08-14T00:56:44.296Z,6.75
2022-08-14T00:59:11.510Z,8.02
2022-08-14T01:01:42.603Z,8.38
2022-08-14T01:04:09.194Z,8.20
2022-08-14T01:10:51.080Z,9.98
2022-08-14T01:13:19.823Z,9.15
2022-08-14T01:15:57.526Z,8.60
2022-08-14T01:18:57.742Z,8.27
2022-08-14T01:21:38.795Z,6.70
2022-08-14T01:26:43.133Z,8.07
2022-08-14T01:29:58.145Z,11.68
2022-08-14T01:32:05.676Z,8.75
2022-08-14T01:35:19.760Z,10.02
2022-08-14T01:37:25.593Z,8.52
2022-08-14T01:39:54.413Z,9.55
2022-08-14T01:42:31.216Z,9.57
2022-08-14T01:44:58.831Z,8.68
2022-08-14T01:47:25.440Z,9.25
2022-08-14T01:49:59.643Z,9.98
2022-08-14T01:52:34.628Z,9.70
2022-08-14T01:55:14.650Z,10.82
2022-08-14T01:58:00.220Z,10.05
2022-08-14T02:00:30.109Z,9.75
2022-08-14T02:03:02.584Z,9.95
2022-08-14T02:05:35.531Z,11.00
2022-08-14T02:08:09.749Z,11.02
2022-08-14T02:10:45.993Z,12.07
2022-08-14T02:13:13.988Z,10.25
2022-08-14T02:15:43.510Z,9.45
2022-08-14T02:18:10.328Z,11.43
2022-08-14T02:20:39.993Z,11.82
2022-08-14T02:23:08.346Z,10.43
2022-08-14T02:25:35.552Z,9.27
2022-08-14T02:28:22.973Z,9.60
2022-08-14T02:30:48.692Z,9.50
2022-08-14T02:33:19.210Z,11.30
2022-08-14T02:35:46.728Z,11.38
2022-08-14T02:38:29.705Z,10.82
2022-08-14T02:40:58.141Z,9.85
2022-08-14T02:43:24.616Z,11.93
2022-08-14T02:46:03.342Z,11.10
2022-08-14T02:49:04.320Z,11.35
2022-08-14T02:51:18.559Z,12.43
2022-08-14T02:53:45.857Z,10.75
2022-08-14T02:57:14.021Z,11.50
2022-08-14T02:59:05.614Z,11.07
2022-08-14T03:01:50.660Z,11.93
2022-08-14T03:04:20.277Z,10.93
2022-08-14T03:07:06.687Z,11.50
2022-08-14T03:09:42.080Z,10.32
2022-08-14T03:12:31.741Z,10.50
2022-08-14T03:15:13.758Z,11.25
2022-08-14T03:17:56.178Z,12.35
2022-08-14T03:20:24.731Z,11.88
2022-08-14T03:22:52.449Z,10.60
2022-08-14T03:25:19.610Z,12.57
2022-08-14T03:27:48.401Z,12.70
2022-08-14T03:30:39.159Z,12.88
2022-08-14T03:33:08.180Z,11.63
2022-08-14T03:35:39.952Z,11.57
2022-08-14T03:39:10.047Z,13.20
2022-08-14T03:41:11.008Z,12.60
2022-08-14T03:43:38.237Z,12.05
2022-08-14T03:46:10.143Z,12.18
2022-08-14T03:48:54.390Z,11.95
2022-08-14T03:51:21.621Z,12.13
2022-08-14T03:53:49.231Z,11.15
2022-08-14T03:56:21.285Z,10.68
2022-08-14T03:58:49.038Z,11.77
2022-08-14T04:01:17.755Z,10.32
2022-08-14T04:03:44.250Z,11.25
2022-08-14T04:06:11.183Z,10.05
2022-08-14T04:08:49.679Z,9.25
2022-08-14T04:11:17.341Z,11.98
2022-08-14T04:13:44.766Z,11.85
2022-08-14T04:16:13.107Z,9.93
2022-08-14T04:18:44.480Z,10.07
2022-08-14T04:21:11.902Z,10.32
2022-08-14T04:23:39.756Z,10.75
2022-08-14T04:26:14.416Z,12.00
2022-08-14T04:29:07.269Z,11.02
2022-08-14T04:32:57.722Z,10.63
2022-08-14T04:34:20.836Z,12.48
2022-08-14T04:37:12.366Z,11.63
2022-08-14T04:42:51.207Z,11.52
2022-08-14T04:45:19.749Z,10.02
2022-08-14T04:48:05.548Z,9.40
2022-08-14T04:50:43.501Z,10.55
2022-08-14T04:53:12.946Z,10.52
2022-08-14T04:55:49.932Z,8.77
2022-08-14T04:58:33.006Z,15.20
2022-08-14T05:01:01.432Z,8.68
2022-08-14T05:03:29.463Z,10.05
2022-08-14T05:06:00.562Z,9.32
2022-08-14T05:08:31.703Z,8.98
2022-08-14T05:11:11.932Z,9.95
2022-08-14T05:13:59.552Z,10.02
2022-08-14T05:16:29.441Z,13.63
2022-08-14T05:19:24.994Z,10.13
2022-08-14T05:22:00.286Z,9.88
2022-08-14T05:24:28.237Z,10.07
2022-08-14T05:26:54.767Z,14.68
2022-08-14T05:29:21.779Z,9.63
2022-08-14T05:31:48.799Z,10.30
2022-08-14T05:34:17.250Z,10.40
2022-08-14T05:36:58.756Z,9.40
2022-08-14T05:39:29.488Z,9.88
2022-08-14T05:41:56.736Z,13.43
2022-08-14T05:44:29.197Z,17.25
2022-08-14T05:46:56.489Z,13.55
2022-08-14T05:49:23.075Z,16.33
2022-08-14T05:51:52.635Z,12.70
2022-08-14T05:54:26.938Z,17.98
2022-08-14T05:56:55.239Z,21.73
2022-08-14T05:59:30.094Z,13.65
2022-08-14T06:02:05.818Z,15.40
2022-08-14T06:04:32.496Z,16.15
2022-08-14T06:06:59.169Z,12.63
2022-08-14T06:09:25.525Z,19.20
2022-08-14T06:11:52.103Z,18.17
2022-08-14T06:14:21.563Z,15.25
2022-08-14T06:16:51.987Z,14.93
2022-08-14T06:19:19.965Z,15.98
2022-08-14T06:21:46.359Z,17.50
2022-08-14T06:24:18.888Z,15.32
2022-08-14T06:26:51.943Z,17.00
2022-08-14T06:29:21.494Z,13.38
2022-08-14T06:31:47.791Z,15.25
2022-08-14T06:35:04.466Z,13.63
2022-08-14T06:37:12.808Z,12.10
2022-08-14T06:39:44.199Z,13.45
2022-08-14T06:42:32.287Z,12.40
2022-08-14T06:44:58.326Z,12.63
2022-08-14T06:47:24.852Z,15.00
2022-08-14T06:49:57.810Z,18.05
2022-08-14T06:52:24.711Z,15.38
2022-08-14T06:54:51.248Z,14.63
2022-08-14T06:57:18.252Z,15.48
2022-08-14T06:59:44.574Z,14.35
2022-08-14T07:02:29.607Z,13.23
2022-08-14T07:05:21.000Z,11.55
2022-08-14T07:07:51.162Z,16.05
2022-08-14T07:10:17.507Z,12.85
2022-08-14T07:13:01.215Z,11.77
2022-08-14T07:15:29.747Z,15.10
2022-08-14T07:17:59.799Z,12.77
2022-08-14T07:20:31.291Z,12.35
2022-08-14T07:23:07.319Z,11.38
2022-08-14T07:25:34.569Z,12.45
2022-08-14T07:28:10.151Z,12.02
2022-08-14T07:30:42.026Z,12.85
2022-08-14T07:33:17.684Z,11.13
2022-08-14T07:35:57.564Z,10.45
2022-08-14T07:38:24.432Z,10.10
2022-08-14T07:40:53.074Z,9.48
2022-08-14T07:43:19.812Z,9.43
2022-08-14T07:45:47.703Z,11.65
2022-08-14T07:48:17.442Z,13.02
2022-08-14T07:50:46.161Z,11.00
2022-08-14T07:53:14.448Z,12.68
2022-08-14T07:55:41.702Z,10.05
2022-08-14T07:58:21.275Z,13.25
2022-08-14T08:00:57.439Z,8.82
2022-08-14T08:03:28.137Z,10.90
2022-08-14T08:05:56.891Z,10.82
2022-08-14T08:08:27.048Z,11.15
2022-08-14T08:11:02.588Z,11.73
2022-08-14T08:13:32.731Z,16.10
2022-08-14T08:16:00.431Z,9.93
2022-08-14T08:18:29.325Z,9.65
2022-08-14T08:20:59.233Z,13.02
2022-08-14T08:23:30.969Z,9.23
2022-08-14T08:26:07.435Z,10.15
2022-08-14T08:28:34.314Z,10.45
2022-08-14T08:31:02.451Z,12.00
2022-08-14T08:33:31.876Z,9.10
2022-08-14T08:36:05.990Z,10.55
2022-08-14T08:39:17.704Z,14.90
2022-08-14T08:41:21.012Z,9.23
2022-08-14T08:43:47.900Z,15.50
2022-08-14T08:46:23.875Z,13.23
2022-08-14T08:51:22.570Z,11.77
2022-08-14T08:54:02.606Z,10.98
2022-08-14T08:56:39.661Z,11.13
2022-08-14T08:59:35.959Z,10.73
2022-08-14T09:02:10.556Z,9.90
2022-08-14T09:04:53.710Z,9.13
2022-08-14T09:07:25.858Z,9.25
2022-08-14T09:09:59.108Z,10.07
2022-08-14T09:12:26.990Z,8.50
2022-08-14T09:14:56.507Z,7.80
2022-08-14T09:17:25.721Z,8.05
2022-08-14T09:19:53.137Z,13.88
2022-08-14T09:22:34.827Z,6.75
2022-08-14T09:25:03.889Z,7.15
2022-08-14T09:27:33.997Z,7.75
2022-08-14T09:30:30.697Z,6.82
2022-08-14T09:33:08.976Z,8.52
2022-08-14T09:35:56.519Z,7.70
2022-08-14T09:38:29.260Z,9.15
2022-08-14T09:40:55.555Z,7.07
2022-08-14T09:43:22.580Z,8.98
2022-08-14T09:45:53.580Z,9.70
2022-08-14T09:48:27.754Z,6.18
2022-08-14T09:50:57.505Z,5.97
2022-08-14T09:54:19.461Z,6.10
2022-08-14T09:56:30.456Z,6.78
2022-08-14T09:58:59.088Z,11.57
2022-08-14T10:01:35.607Z,6.78
2022-08-14T10:04:06.236Z,7.03
2022-08-14T10:06:45.244Z,6.80
2022-08-14T10:09:16.664Z,6.53
2022-08-14T10:11:59.035Z,7.68
2022-08-14T10:14:29.337Z,9.30
2022-08-14T10:17:05.242Z,6.10
2022-08-14T10:19:35.646Z,6.20
2022-08-14T10:23:13.646Z,10.38
2022-08-14T10:24:49.670Z,6.43
2022-08-14T10:27:23.290Z,10.23
2022-08-14T10:29:50.868Z,7.47
2022-08-14T10:32:28.448Z,6.22
2022-08-14T10:35:09.278Z,6.40
2022-08-14T10:37:41.916Z,6.88
2022-08-14T10:40:38.742Z,10.25
2022-08-14T10:42:57.357Z,6.47
2022-08-14T10:45:25.675Z,9.85
2022-08-14T10:48:09.147Z,6.20
2022-08-14T10:50:41.307Z,6.22
2022-08-14T10:53:08.768Z,7.63
2022-08-14T10:55:39.372Z,8.95
2022-08-14T10:58:12.420Z,7.93
2022-08-14T11:00:46.872Z,6.78
2022-08-14T11:03:19.904Z,6.88
2022-08-14T11:05:55.960Z,6.13
2022-08-14T11:08:32.635Z,6.50
2022-08-14T11:11:01.703Z,7.85
2022-08-14T11:13:30.020Z,6.35
2022-08-14T11:16:00.497Z,5.65
2022-08-14T11:18:36.075Z,6.18
2022-08-14T11:21:07.009Z,6.30
2022-08-14T11:23:44.413Z,6.15
2022-08-14T11:26:11.460Z,5.55
2022-08-14T11:28:46.941Z,4.97
2022-08-14T11:31:16.760Z,5.32
2022-08-14T11:33:43.214Z,5.65
2022-08-14T11:36:17.845Z,7.93
2022-08-14T11:38:45.892Z,6.60
2022-08-14T11:41:17.154Z,7.05
2022-08-14T11:43:57.756Z,7.90
2022-08-14T11:46:30.556Z,13.70
2022-08-14T11:49:05.612Z,5.38
2022-08-14T11:51:36.429Z,13.13
2022-08-14T11:54:19.926Z,7.43
2022-08-14T11:56:50.717Z,5.18
2022-08-14T11:59:18.076Z,7.40
2022-08-14T12:01:46.318Z,5.13
2022-08-14T12:04:31.582Z,5.72
2022-08-14T12:07:00.921Z,5.13
2022-08-14T12:09:38.082Z,7.10
2022-08-14T12:12:35.080Z,8.55
2022-08-14T12:15:02.839Z,4.60
2022-08-14T12:17:47.716Z,6.13
2022-08-14T12:20:16.485Z,4.85
2022-08-14T12:22:58.816Z,5.40
2022-08-14T12:25:26.793Z,4.78
2022-08-14T12:27:54.775Z,5.28
2022-08-14T12:30:48.598Z,5.32
2022-08-14T12:33:33.689Z,4.70
2022-08-14T12:36:04.133Z,4.68
2022-08-14T12:38:31.949Z,5.30
2022-08-14T12:40:58.420Z,5.30
2022-08-14T12:43:24.764Z,6.28
2022-08-14T12:45:55.015Z,4.45
2022-08-14T12:48:32.030Z,4.95
2022-08-14T12:50:58.925Z,4.18
2022-08-14T12:53:36.305Z,6.90
2022-08-14T12:56:21.386Z,4.97
2022-08-14T12:58:55.472Z,5.40
2022-08-14T13:01:25.483Z,8.55
2022-08-14T13:04:05.150Z,5.30
2022-08-14T13:06:32.404Z,6.65
2022-08-14T13:09:00.351Z,8.80
2022-08-14T13:11:30.919Z,6.57
2022-08-14T13:13:59.606Z,4.88
2022-08-14T13:16:38.220Z,5.75
2022-08-14T13:19:09.758Z,6.80
2022-08-14T13:21:58.437Z,7.85
2022-08-14T13:24:27.861Z,9.18
2022-08-14T13:27:00.366Z,5.03
2022-08-14T13:29:31.586Z,6.40
2022-08-14T13:31:58.329Z,5.15
2022-08-14T13:34:25.985Z,6.38
2022-08-14T13:36:59.025Z,8.13
2022-08-14T13:39:36.334Z,5.03
2022-08-14T13:42:08.427Z,5.13
2022-08-14T13:44:37.976Z,5.35
2022-08-14T13:47:09.396Z,7.25
2022-08-14T13:49:37.460Z,5.75
2022-08-14T13:52:04.732Z,6.70
2022-08-14T13:54:55.536Z,5.07
2022-08-14T13:57:22.928Z,4.95
2022-08-14T14:00:00.246Z,6.20
2022-08-14T14:02:33.696Z,5.40
2022-08-14T14:05:00.972Z,6.27
2022-08-14T14:07:31.976Z,4.95
2022-08-14T14:10:06.486Z,5.45
2022-08-14T14:12:41.145Z,5.30
2022-08-14T14:15:09.629Z,5.20
2022-08-14T14:17:36.412Z,6.28
2022-08-14T14:20:06.217Z,5.72
2022-08-14T14:23:00.953Z,5.60
2022-08-14T14:25:22.039Z,5.97
2022-08-14T14:27:49.617Z,5.88
2022-08-14T14:30:52.587Z,4.78
2022-08-14T14:33:23.133Z,4.90
2022-08-14T14:35:55.111Z,5.50
2022-08-14T14:38:27.585Z,5.45
2022-08-14T14:41:00.951Z,5.15
2022-08-14T14:43:28.268Z,7.80
2022-08-14T14:45:55.540Z,5.63
2022-08-14T14:48:23.398Z,6.00
2022-08-14T14:50:57.432Z,5.55
2022-08-14T14:53:24.981Z,5.57
2022-08-14T14:56:47.380Z,5.45
2022-08-14T14:58:41.835Z,4.80
2022-08-14T15:01:10.376Z,6.78
2022-08-14T15:03:38.405Z,8.02
2022-08-14T15:06:06.319Z,5.60
2022-08-14T15:08:57.031Z,5.18
2022-08-14T15:11:20.204Z,5.38
2022-08-14T15:13:53.224Z,5.85
2022-08-14T15:16:20.100Z,5.25
2022-08-14T15:18:49.134Z,5.95
2022-08-14T15:21:15.743Z,5.13
2022-08-14T15:23:44.797Z,6.35
2022-08-14T15:26:13.464Z,5.68
2022-08-14T15:29:02.217Z,5.80
2022-08-14T15:31:29.689Z,7.53
2022-08-14T15:34:44.704Z,5.32
2022-08-14T15:36:57.723Z,5.13
2022-08-14T15:39:24.109Z,4.95
2022-08-14T15:41:50.957Z,8.05
2022-08-14T15:44:25.376Z,7.78
2022-08-14T15:46:52.989Z,8.68
2022-08-14T15:49:19.681Z,5.22
2022-08-14T15:51:46.044Z,6.60
2022-08-14T15:54:12.828Z,5.43
2022-08-14T15:56:42.926Z,4.75
2022-08-14T15:59:12.989Z,5.35
2022-08-14T16:01:53.801Z,5.25
2022-08-14T16:04:23.973Z,5.35
2022-08-14T16:06:54.554Z,4.75
2022-08-14T16:09:21.612Z,5.20
2022-08-14T16:11:53.381Z,5.45
2022-08-14T16:14:21.268Z,4.82
2022-08-14T16:16:51.576Z,7.22
2022-08-14T16:19:27.363Z,4.90
2022-08-14T16:22:02.539Z,5.32
2022-08-14T16:24:59.677Z,5.68
2022-08-14T16:27:39.658Z,7.72
2022-08-14T16:30:24.488Z,5.18
2022-08-14T16:32:56.065Z,4.90
2022-08-14T16:35:25.094Z,4.82
2022-08-14T16:37:52.976Z,6.45
2022-08-14T16:43:04.256Z,5.35
2022-08-14T16:45:43.728Z,5.22
2022-08-14T16:48:54.692Z,4.38
2022-08-14T16:50:57.824Z,4.47
2022-08-14T16:53:27.157Z,5.07
2022-08-14T16:56:23.106Z,6.43
2022-08-14T16:58:51.622Z,4.80
2022-08-14T17:01:25.062Z,5.47
2022-08-14T17:04:25.028Z,5.20
2022-08-14T17:06:55.895Z,5.30
2022-08-14T17:09:25.064Z,5.40
2022-08-14T17:12:07.639Z,4.93
2022-08-14T17:14:50.536Z,5.10
2022-08-14T17:17:21.160Z,5.63
2022-08-14T17:19:56.035Z,6.07
2022-08-14T17:22:22.716Z,6.47
2022-08-14T17:25:03.024Z,5.57
2022-08-14T17:27:30.348Z,10.07
2022-08-14T17:29:57.779Z,6.53
2022-08-14T17:32:29.237Z,5.70
2022-08-14T17:35:10.961Z,7.45
2022-08-14T17:37:39.273Z,6.65
2022-08-14T17:40:19.005Z,6.80
2022-08-14T17:42:45.785Z,5.47
2022-08-14T17:45:19.250Z,5.45
2022-08-14T17:47:53.472Z,7.97
2022-08-14T17:50:58.416Z,8.57
2022-08-14T17:53:26.197Z,6.43
2022-08-14T17:56:01.485Z,5.88
2022-08-14T17:58:30.274Z,5.45
2022-08-14T18:01:05.375Z,6.53
2022-08-14T18:03:51.254Z,6.15
2022-08-14T18:06:40.109Z,5.38
2022-08-14T18:09:25.301Z,5.38
2022-08-14T18:11:54.230Z,5.78
2022-08-14T18:14:33.290Z,6.30
2022-08-14T18:17:11.559Z,5.63
2022-08-14T18:19:41.698Z,6.25
2022-08-14T18:22:30.821Z,6.65
2022-08-14T18:24:55.553Z,8.57
2022-08-14T18:27:23.466Z,9.20
2022-08-14T18:29:54.811Z,7.72
2022-08-14T18:32:27.882Z,5.88
2022-08-14T18:35:11.231Z,7.07
2022-08-14T18:40:34.715Z,6.75
2022-08-14T18:43:03.597Z,5.93
2022-08-14T18:45:32.166Z,5.82
2022-08-14T18:48:28.393Z,7.72
2022-08-14T18:51:01.176Z,10.93
2022-08-14T18:53:34.322Z,10.32
2022-08-14T18:56:09.576Z,11.80
2022-08-14T18:58:57.005Z,17.48
2022-08-14T19:01:26.690Z,13.98
2022-08-14T19:03:55.985Z,22.60
2022-08-14T19:06:37.309Z,29.80
2022-08-14T19:09:04.603Z,27.10
2022-08-14T19:11:39.813Z,30.00
2022-08-14T19:14:07.236Z,33.63
2022-08-14T19:16:37.534Z,27.95
2022-08-14T19:19:10.453Z,31.25
2022-08-14T19:21:43.541Z,30.20
2022-08-14T19:24:26.750Z,28.70
2022-08-14T19:27:16.458Z,33.03
2022-08-14T19:29:47.682Z,20.98
2022-08-14T19:32:36.466Z,14.77
2022-08-14T19:35:16.554Z,15.25
2022-08-14T19:37:45.048Z,8.55
2022-08-14T19:40:15.373Z,23.73
2022-08-14T19:42:47.347Z,19.15
2022-08-14T19:45:15.353Z,16.40
2022-08-14T19:47:42.020Z,20.80
2022-08-14T19:50:31.011Z,13.15
2022-08-14T19:53:11.258Z,25.02
2022-08-14T19:55:45.674Z,10.93
2022-08-14T19:58:12.855Z,20.88
2022-08-14T20:00:52.010Z,12.23
2022-08-14T20:03:23.888Z,12.82
2022-08-14T20:06:00.544Z,10.73
2022-08-14T20:09:05.351Z,10.57
2022-08-14T20:11:43.494Z,10.52
2022-08-14T20:14:20.421Z,14.00
2022-08-14T20:16:49.640Z,9.45
2022-08-14T20:19:28.769Z,8.65
2022-08-14T20:22:00.738Z,13.52
2022-08-14T20:24:45.107Z,8.75
2022-08-14T20:27:38.804Z,8.38
2022-08-14T20:30:29.727Z,10.43
2022-08-14T20:32:57.852Z,9.25
2022-08-14T20:35:25.758Z,11.45
2022-08-14T20:38:30.392Z,9.63
2022-08-14T20:40:52.491Z,8.68
2022-08-14T20:43:41.555Z,9.25
2022-08-14T20:46:12.278Z,13.63
2022-08-14T20:48:52.806Z,12.60
2022-08-14T20:51:23.965Z,8.93
2022-08-14T20:54:03.853Z,11.70
2022-08-14T20:56:41.404Z,11.30
2022-08-14T20:59:15.620Z,8.85
2022-08-14T21:01:45.590Z,9.25
2022-08-14T21:04:22.633Z,8.20
2022-08-14T21:07:25.196Z,13.07
2022-08-14T21:09:43.708Z,9.75
2022-08-14T21:12:34.323Z,8.85
2022-08-14T21:15:04.975Z,9.85
2022-08-14T21:17:37.527Z,11.77
2022-08-14T21:20:21.208Z,10.45
2022-08-14T21:22:51.158Z,9.98
2022-08-14T21:25:20.761Z,12.25
2022-08-14T21:27:56.605Z,10.90
2022-08-14T21:30:46.648Z,12.82
2022-08-14T21:33:12.455Z,8.93
2022-08-14T21:35:45.599Z,9.35
2022-08-14T21:38:16.883Z,9.65
2022-08-14T21:40:46.742Z,9.95
2022-08-14T21:43:17.806Z,8.27
2022-08-14T21:45:51.678Z,9.38
2022-08-14T21:48:20.783Z,8.38
2022-08-14T21:51:00.652Z,10.77
2022-08-14T21:53:36.711Z,9.80
2022-08-14T21:56:24.039Z,8.93
2022-08-14T21:59:07.168Z,10.77
2022-08-14T22:02:01.082Z,11.73
2022-08-14T22:04:33.781Z,10.63
2022-08-14T22:07:08.564Z,9.85
2022-08-14T22:09:36.740Z,10.05
2022-08-14T22:12:06.836Z,9.18
2022-08-14T22:14:33.494Z,7.38
2022-08-14T22:17:12.708Z,12.40
2022-08-14T22:19:47.561Z,7.63
2022-08-14T22:22:22.267Z,9.23
2022-08-14T22:24:54.145Z,8.20
2022-08-14T22:27:29.341Z,8.63
2022-08-14T22:29:57.772Z,12.30
2022-08-14T22:32:56.129Z,9.60
2022-08-14T22:35:11.992Z,7.53
2022-08-14T22:37:39.652Z,7.43
2022-08-14T22:40:55.163Z,8.20
2022-08-14T22:43:00.336Z,6.97
2022-08-14T22:45:36.236Z,9.50
2022-08-14T22:48:04.099Z,11.57
2022-08-14T22:50:33.642Z,8.25
2022-08-14T22:53:00.698Z,9.00
2022-08-14T22:55:27.401Z,7.85
2022-08-14T22:57:53.778Z,8.27
2022-08-14T23:00:25.640Z,8.80
2022-08-14T23:02:58.251Z,8.27
2022-08-14T23:05:40.139Z,10.00
2022-08-14T23:08:59.940Z,11.52
2022-08-14T23:11:03.080Z,9.45
2022-08-14T23:13:30.733Z,7.65
2022-08-14T23:15:58.023Z,11.18
2022-08-14T23:18:29.730Z,11.63
2022-08-14T23:20:56.525Z,8.93
2022-08-14T23:23:23.356Z,11.65
2022-08-14T23:25:59.957Z,8.77
2022-08-14T23:28:34.445Z,8.85
2022-08-14T23:31:34.661Z,11.52
2022-08-14T23:36:36.911Z,11.82
2022-08-14T23:39:10.203Z,11.75
2022-08-14T23:41:46.452Z,12.38
2022-08-14T23:44:21.502Z,12.98
2022-08-14T23:46:49.336Z,11.10
2022-08-14T23:49:20.421Z,10.43
2022-08-14T23:51:48.508Z,9.70
2022-08-14T23:54:48.135Z,14.60
2022-08-14T23:57:12.984Z,9.98
2022-08-14T23:59:45.070Z,10.10
